Messwerte Badenweiler

Temperatur

Temperatur
°C
1547715600 10.00 10.00 7.6
1547719200 11.00 11.00 7.3
1547722800 12.00 12.00 7.3
1547726400 13.00 13.00 7.1
1547730000 14.00 14.00 6.9
1547733600 15.00 15.00 6.7
1547737200 16.00 16.00 6.5
1547740800 17.00 17.00 5.2
1547744400 18.00 18.00 5.1
1547748000 19.00 19.00 4.6
1547751600 20.00 20.00 4.7
1547755200 21.00 21.00 4.3
1547758800 22.00 22.00 4.2
1547762400 23.00 23.00 4.1
1547766000 0.00 0.00 2.3
1547769600 1.00 1.00 1.9
1547773200 2.00 2.00 0.7
1547776800 3.00 3.00 0.4
1547780400 4.00 4.00 -0.4
1547784000 5.00 5.00 -0.9
1547787600 6.00 6.00 -1.4
1547791200 7.00 7.00 -1.6
1547794800 8.00 8.00 -2.2
1547798400 9.00 9.00 -2.0

Wir danken unserem Partner: Wetterstation Badenweiler

Aktuellste Messwerte

Temperatur
-2.0 °C
Feuchtigkeit
79 %
Wind
1 km/hWindrichtung: Ost
Böen
4 km/h
Niederschlag
0.0 mm
Luftdruck
1019.4 hPa
Messzeit: 18. Januar 2019, 9.00Datenquelle: MeteoNews Partner, Wetterstation Badenweiler

Weitere Messstationen in der Nähe

Messstation Temperatur Entfernung
Bad Krozingen -0.3 °C 14 km
Aftersteg bei Todtnau -5.8 °C 20 km
Colmar -2.7 °C 24 km
Flughafen Basel-Mülhausen -1 °C 24 km
Riehen -1.6 °C 24 km
St. Chrischona -3.7 °C 26 km
Schwörstadt -0.2 °C 28 km

Niederschlag

Niederschlagsmenge
mm
1547715600 10.00 9.00 - 10.00 0.0
1547719200 11.00 10.00 - 11.00
1547722800 12.00 11.00 - 12.00 0.0
1547726400 13.00 12.00 - 13.00
1547730000 14.00 13.00 - 14.00
1547733600 15.00 14.00 - 15.00
1547737200 16.00 15.00 - 16.00 0.0
1547740800 17.00 16.00 - 17.00
1547744400 18.00 17.00 - 18.00
1547748000 19.00 18.00 - 19.00
1547751600 20.00 19.00 - 20.00
1547755200 21.00 20.00 - 21.00 0.0
1547758800 22.00 21.00 - 22.00
1547762400 23.00 22.00 - 23.00 0.0
1547766000 0.00 23.00 - 0.00 0.1
1547769600 1.00 0.00 - 1.00
1547773200 2.00 1.00 - 2.00
1547776800 3.00 2.00 - 3.00 0.0
1547780400 4.00 3.00 - 4.00 0.0
1547784000 5.00 4.00 - 5.00 0.0
1547787600 6.00 5.00 - 6.00 0.0
1547791200 7.00 6.00 - 7.00
1547794800 8.00 7.00 - 8.00 0.0
1547798400 9.00 8.00 - 9.00 0.0

Wind

Windrichtung Böen Mittelwind
° km/h km/h
1547715600 10.00 9.00 - 10.00 230° 28 12
1547719200 11.00 10.00 - 11.00 220° 28 14
1547722800 12.00 11.00 - 12.00 220° 27 13
1547726400 13.00 12.00 - 13.00 230° 33 14
1547730000 14.00 13.00 - 14.00 230° 19 10
1547733600 15.00 14.00 - 15.00 240° 26 11
1547737200 16.00 15.00 - 16.00 230° 40 13
1547740800 17.00 16.00 - 17.00 240° 40 11
1547744400 18.00 17.00 - 18.00 240° 15 6
1547748000 19.00 18.00 - 19.00 240° 19 7
1547751600 20.00 19.00 - 20.00 230° 18 9
1547755200 21.00 20.00 - 21.00 230° 18 6
1547758800 22.00 21.00 - 22.00 240° 19 8
1547762400 23.00 22.00 - 23.00 230° 19 9
1547766000 0.00 23.00 - 0.00 100° 16 3
1547769600 1.00 0.00 - 1.00 20° 7 3
1547773200 2.00 1.00 - 2.00 10° 7 3
1547776800 3.00 2.00 - 3.00 30° 7 2
1547780400 4.00 3.00 - 4.00 10° 5 2
1547784000 5.00 4.00 - 5.00 50° 6 2
1547787600 6.00 5.00 - 6.00 330° 7 4
1547791200 7.00 6.00 - 7.00 360° 3 1
1547794800 8.00 7.00 - 8.00 100° 4 1
1547798400 9.00 8.00 - 9.00 90° 4 1

Ihre Wetterstation

Fehlt Ihre Wetterstation auf unserem Portal?

Schreiben Sie an network@meteonews.ch

Klima

Wann ist es am wärmsten? Wann regnet es am wenigsten? Unsere Klimadaten geben Auskunft.